createdAt,value
2022-09-18T00:02:37.796Z,10.88
2022-09-18T00:05:26.209Z,10.64
2022-09-18T00:08:24.963Z,10.76
2022-09-18T00:11:16.105Z,10.36
2022-09-18T00:14:07.219Z,10.44
2022-09-18T00:16:55.761Z,10.12
2022-09-18T00:19:44.156Z,10.27
2022-09-18T00:22:32.426Z,10.22
2022-09-18T00:25:22.166Z,10.38
2022-09-18T00:28:16.683Z,10.82
2022-09-18T00:31:06.416Z,10.60
2022-09-18T00:34:02.694Z,10.25
2022-09-18T00:36:51.034Z,10.06
2022-09-18T00:39:45.534Z,10.02
2022-09-18T00:42:35.209Z,9.95
2022-09-18T00:45:29.596Z,9.93
2022-09-18T00:48:18.791Z,10.16
2022-09-18T00:51:07.670Z,10.12
2022-09-18T00:54:07.931Z,10.15
2022-09-18T00:57:01.463Z,10.13
2022-09-18T00:59:53.213Z,10.23
2022-09-18T01:02:43.057Z,10.01
2022-09-18T01:05:59.144Z,10.01
2022-09-18T01:09:01.986Z,9.77
2022-09-18T01:11:55.648Z,9.67
2022-09-18T01:14:54.760Z,9.79
2022-09-18T01:17:51.844Z,9.77
2022-09-18T01:20:57.990Z,9.67
2022-09-18T01:24:10.361Z,9.95
2022-09-18T01:27:02.560Z,9.76
2022-09-18T01:30:06.886Z,9.62
2022-09-18T01:32:59.370Z,10.10
2022-09-18T01:35:53.802Z,9.57
2022-09-18T01:38:49.582Z,9.61
2022-09-18T01:41:41.534Z,9.87
2022-09-18T01:44:34.704Z,9.91
2022-09-18T01:47:31.924Z,9.94
2022-09-18T01:50:21.051Z,9.72
2022-09-18T01:53:22.330Z,10.12
2022-09-18T01:56:15.122Z,10.17
2022-09-18T01:59:08.699Z,9.90
2022-09-18T02:02:11.885Z,9.75
2022-09-18T02:05:07.643Z,9.92
2022-09-18T02:08:09.245Z,9.69
2022-09-18T02:11:04.097Z,9.86
2022-09-18T02:13:59.483Z,9.70
2022-09-18T02:17:04.485Z,9.92
2022-09-18T02:20:00.294Z,9.94
2022-09-18T02:22:54.123Z,10.17
2022-09-18T02:25:45.849Z,10.03
2022-09-18T02:28:37.362Z,10.07
2022-09-18T02:31:26.075Z,10.04
2022-09-18T02:34:23.576Z,9.41
2022-09-18T02:37:32.092Z,9.63
2022-09-18T02:40:31.646Z,9.78
2022-09-18T02:43:36.843Z,9.70
2022-09-18T02:46:38.033Z,10.00
2022-09-18T02:49:36.995Z,9.87
2022-09-18T02:52:31.931Z,9.68
2022-09-18T02:55:28.439Z,9.58
2022-09-18T02:58:22.623Z,9.71
2022-09-18T03:01:15.596Z,9.50
2022-09-18T03:04:05.799Z,9.55
2022-09-18T03:07:16.021Z,9.31
2022-09-18T03:10:05.537Z,9.87
2022-09-18T03:13:01.522Z,9.65
2022-09-18T03:15:50.101Z,9.60
2022-09-18T03:18:46.252Z,9.36
2022-09-18T03:21:34.847Z,9.29
2022-09-18T03:24:25.783Z,9.43
2022-09-18T03:27:23.573Z,9.22
2022-09-18T03:30:15.643Z,9.35
2022-09-18T03:33:04.233Z,9.79
2022-09-18T03:35:59.802Z,9.66
2022-09-18T03:38:48.382Z,9.55
2022-09-18T03:41:42.981Z,9.31
2022-09-18T03:44:31.321Z,9.77
2022-09-18T03:47:23.070Z,9.51
2022-09-18T03:50:11.873Z,9.66
2022-09-18T03:53:09.584Z,9.20
2022-09-18T03:56:04.040Z,9.03
2022-09-18T03:59:24.885Z,9.28
2022-09-18T04:02:29.315Z,9.19
2022-09-18T04:05:36.258Z,9.13
2022-09-18T04:08:43.250Z,9.32
2022-09-18T04:11:45.646Z,8.93
2022-09-18T04:14:34.066Z,9.16
2022-09-18T04:17:29.772Z,9.24
2022-09-18T04:20:19.041Z,9.21
2022-09-18T04:23:07.795Z,9.44
2022-09-18T04:26:09.431Z,8.99
2022-09-18T04:29:02.761Z,9.16
2022-09-18T04:31:52.160Z,9.21
2022-09-18T04:34:44.436Z,9.21
2022-09-18T04:37:33.188Z,8.78
2022-09-18T04:40:23.314Z,9.01
2022-09-18T04:43:12.798Z,8.99
2022-09-18T04:46:02.207Z,9.13
2022-09-18T04:48:51.479Z,9.03
2022-09-18T04:51:45.990Z,8.79
2022-09-18T04:54:37.720Z,8.84
2022-09-18T04:57:32.159Z,8.96
2022-09-18T05:00:21.062Z,8.77
2022-09-18T05:03:10.306Z,8.75
2022-09-18T05:06:01.004Z,8.81
2022-09-18T05:08:50.952Z,9.04
2022-09-18T05:11:40.702Z,8.58
2022-09-18T05:14:29.228Z,8.67
2022-09-18T05:17:22.277Z,9.00
2022-09-18T05:20:20.993Z,8.75
2022-09-18T05:23:10.026Z,8.73
2022-09-18T05:25:59.905Z,8.95
2022-09-18T05:28:57.075Z,9.02
2022-09-18T05:31:45.643Z,9.05
2022-09-18T05:34:36.395Z,9.37
2022-09-18T05:37:30.616Z,8.67
2022-09-18T05:40:19.241Z,8.87
2022-09-18T05:43:15.490Z,9.04
2022-09-18T05:46:04.351Z,8.73
2022-09-18T05:49:01.719Z,8.99
2022-09-18T05:51:58.987Z,8.94
2022-09-18T05:54:50.525Z,8.80
2022-09-18T05:57:47.529Z,8.72
2022-09-18T06:00:37.356Z,8.81
2022-09-18T06:03:32.145Z,8.97
2022-09-18T06:06:28.445Z,8.88
2022-09-18T06:09:16.913Z,8.76
2022-09-18T06:12:11.619Z,9.23
2022-09-18T06:15:00.343Z,9.33
2022-09-18T06:17:56.918Z,9.47
2022-09-18T06:20:52.635Z,9.49
2022-09-18T06:23:43.252Z,9.89
2022-09-18T06:26:45.998Z,9.68
2022-09-18T06:29:35.077Z,9.86
2022-09-18T06:32:36.146Z,9.58
2022-09-18T06:35:33.989Z,9.84
2022-09-18T06:38:22.500Z,9.33
2022-09-18T06:41:13.032Z,9.66
2022-09-18T06:44:09.820Z,9.88
2022-09-18T06:47:03.817Z,10.23
2022-09-18T06:50:00.253Z,9.83
2022-09-18T06:53:02.969Z,9.27
2022-09-18T06:55:54.640Z,9.85
2022-09-18T06:58:53.165Z,9.78
2022-09-18T07:01:42.236Z,9.74
2022-09-18T07:04:40.069Z,9.74
2022-09-18T07:07:34.888Z,9.89
2022-09-18T07:10:25.572Z,9.78
2022-09-18T07:13:13.976Z,9.89
2022-09-18T07:16:07.158Z,9.97
2022-09-18T07:19:01.670Z,9.60
2022-09-18T07:21:53.290Z,9.77
2022-09-18T07:24:41.616Z,10.15
2022-09-18T07:27:40.840Z,9.72
2022-09-18T07:30:29.460Z,9.91
2022-09-18T07:33:21.112Z,9.73
2022-09-18T07:36:16.628Z,10.35
2022-09-18T07:39:05.616Z,9.79
2022-09-18T07:42:09.832Z,9.91
2022-09-18T07:44:59.837Z,9.88
2022-09-18T07:47:48.240Z,10.57
2022-09-18T07:50:36.888Z,9.91
2022-09-18T07:53:34.348Z,10.50
2022-09-18T07:56:23.443Z,10.69
2022-09-18T07:59:20.884Z,10.73
2022-09-18T08:02:16.697Z,10.42
2022-09-18T08:05:05.676Z,10.75
2022-09-18T08:08:05.281Z,10.44
2022-09-18T08:11:13.901Z,10.28
2022-09-18T08:14:07.450Z,10.91
2022-09-18T08:17:00.352Z,10.90
2022-09-18T08:20:01.886Z,10.78
2022-09-18T08:23:13.796Z,10.73
2022-09-18T08:26:09.787Z,10.86
2022-09-18T08:28:58.855Z,10.37
2022-09-18T08:31:53.756Z,10.70
2022-09-18T08:34:43.734Z,10.86
2022-09-18T08:37:37.250Z,11.06
2022-09-18T08:40:58.040Z,10.80
2022-09-18T08:43:57.356Z,10.48
2022-09-18T08:46:51.829Z,10.86
2022-09-18T08:49:46.536Z,10.75
2022-09-18T08:52:44.351Z,10.88
2022-09-18T08:55:49.898Z,11.35
2022-09-18T08:58:59.547Z,11.03
2022-09-18T09:01:57.244Z,10.66
2022-09-18T09:04:47.491Z,10.58
2022-09-18T09:08:15.848Z,10.93
2022-09-18T09:11:13.560Z,11.33
2022-09-18T09:14:34.451Z,11.61
2022-09-18T09:17:40.890Z,11.81
2022-09-18T09:20:45.641Z,11.40
2022-09-18T09:23:51.562Z,11.33
2022-09-18T09:26:57.384Z,11.27
2022-09-18T09:30:22.396Z,11.05
2022-09-18T09:33:36.687Z,11.12
2022-09-18T09:37:02.005Z,10.97
2022-09-18T09:39:56.779Z,10.93
2022-09-18T09:42:51.609Z,10.76
2022-09-18T09:45:46.137Z,10.74
2022-09-18T09:48:42.751Z,10.67
2022-09-18T09:51:40.685Z,11.31
2022-09-18T09:54:29.190Z,10.72
2022-09-18T09:57:34.077Z,10.82
2022-09-18T10:00:24.933Z,11.39
2022-09-18T10:03:42.495Z,11.46
2022-09-18T10:06:50.377Z,11.11
2022-09-18T10:09:47.407Z,11.29
2022-09-18T10:12:46.447Z,11.08
2022-09-18T10:15:40.785Z,10.96
2022-09-18T10:18:36.375Z,11.07
2022-09-18T10:21:28.409Z,11.00
2022-09-18T10:24:23.660Z,11.85
2022-09-18T10:27:16.562Z,11.87
2022-09-18T10:30:12.945Z,11.50
2022-09-18T10:33:32.805Z,11.53
2022-09-18T10:36:28.310Z,11.74
2022-09-18T10:39:19.897Z,11.69
2022-09-18T10:42:17.789Z,11.07
2022-09-18T10:45:21.757Z,10.97
2022-09-18T10:48:15.705Z,11.07
2022-09-18T10:51:06.456Z,11.14
2022-09-18T10:54:16.162Z,11.73
2022-09-18T10:57:29.337Z,11.78
2022-09-18T11:00:49.681Z,12.17
2022-09-18T11:03:43.838Z,11.81
2022-09-18T11:06:39.440Z,12.69
2022-09-18T11:09:42.872Z,13.27
2022-09-18T11:12:35.179Z,12.70
2022-09-18T11:15:33.700Z,12.41
2022-09-18T11:18:23.722Z,12.04
2022-09-18T11:21:19.084Z,12.09
2022-09-18T11:24:19.576Z,11.99
2022-09-18T11:27:20.750Z,11.26
2022-09-18T11:30:16.505Z,11.04
2022-09-18T11:33:20.769Z,11.46
2022-09-18T11:36:13.093Z,11.06
2022-09-18T11:39:03.174Z,10.64
2022-09-18T11:41:56.773Z,11.16
2022-09-18T11:44:46.131Z,10.73
2022-09-18T11:47:42.014Z,10.45
2022-09-18T11:50:36.288Z,10.33
2022-09-18T11:53:29.601Z,10.63
2022-09-18T11:56:32.590Z,10.87
2022-09-18T11:59:30.740Z,10.92
2022-09-18T12:02:28.261Z,10.93
2022-09-18T12:05:24.465Z,11.17
2022-09-18T12:08:19.427Z,11.31
2022-09-18T12:11:20.131Z,11.49
2022-09-18T12:14:17.699Z,11.10
2022-09-18T12:17:26.062Z,11.37
2022-09-18T12:20:22.852Z,12.10
2022-09-18T12:23:14.866Z,11.61
2022-09-18T12:26:21.387Z,11.55
2022-09-18T12:29:26.731Z,11.02
2022-09-18T12:32:32.772Z,11.51
2022-09-18T12:35:33.297Z,10.99
2022-09-18T12:38:46.652Z,11.24
2022-09-18T12:41:48.987Z,11.46
2022-09-18T12:44:54.162Z,11.37
2022-09-18T12:48:01.858Z,10.82
2022-09-18T12:51:02.413Z,11.37
2022-09-18T12:54:14.306Z,11.37
2022-09-18T12:57:19.273Z,11.01
2022-09-18T13:00:11.658Z,11.23
2022-09-18T13:03:09.841Z,11.34
2022-09-18T13:06:02.800Z,10.78
2022-09-18T13:08:57.910Z,10.48
2022-09-18T13:11:51.283Z,10.37
2022-09-18T13:14:44.393Z,10.68
2022-09-18T13:17:37.597Z,10.50
2022-09-18T13:20:32.642Z,10.27
2022-09-18T13:23:24.138Z,10.39
2022-09-18T13:26:16.014Z,10.66
2022-09-18T13:29:05.479Z,10.33
2022-09-18T13:31:54.907Z,10.32
2022-09-18T13:34:50.104Z,10.38
2022-09-18T13:37:39.980Z,10.61
2022-09-18T13:40:35.936Z,10.42
2022-09-18T13:43:39.741Z,10.25
2022-09-18T13:46:39.692Z,10.32
2022-09-18T13:49:32.148Z,10.51
2022-09-18T13:52:46.110Z,10.83
2022-09-18T13:55:48.450Z,10.42
2022-09-18T13:58:47.980Z,10.24
2022-09-18T14:02:23.023Z,10.47
2022-09-18T14:05:30.892Z,10.87
2022-09-18T14:08:39.430Z,10.38
2022-09-18T14:11:33.916Z,10.73
2022-09-18T14:14:25.861Z,10.47
2022-09-18T14:17:16.358Z,10.74
2022-09-18T14:20:18.749Z,10.33
2022-09-18T14:23:41.447Z,10.84
2022-09-18T14:26:56.783Z,10.70
2022-09-18T14:29:48.549Z,10.44
2022-09-18T14:32:37.130Z,10.65
2022-09-18T14:35:44.916Z,10.91
2022-09-18T14:38:35.861Z,10.94
2022-09-18T14:41:28.681Z,10.33
2022-09-18T14:44:18.664Z,10.46
2022-09-18T14:47:22.317Z,10.52
2022-09-18T14:50:27.595Z,10.32
2022-09-18T14:53:21.959Z,10.39
2022-09-18T14:56:13.739Z,10.61
2022-09-18T14:59:06.045Z,10.42
2022-09-18T15:02:12.933Z,10.42
2022-09-18T15:05:03.752Z,10.06
2022-09-18T15:07:56.133Z,10.01
2022-09-18T15:10:49.445Z,9.64
2022-09-18T15:13:39.026Z,9.79
2022-09-18T15:16:36.545Z,10.05
2022-09-18T15:19:27.195Z,10.36
2022-09-18T15:22:22.458Z,10.11
2022-09-18T15:25:13.589Z,10.08
2022-09-18T15:28:07.806Z,10.29
2022-09-18T15:31:03.650Z,10.34
2022-09-18T15:33:58.528Z,10.46
2022-09-18T15:36:56.606Z,10.06
2022-09-18T15:39:48.328Z,10.78
2022-09-18T15:42:40.029Z,10.40
2022-09-18T15:45:30.675Z,10.22
2022-09-18T15:48:37.017Z,10.17
2022-09-18T15:51:28.003Z,10.13
2022-09-18T15:54:28.869Z,10.51
2022-09-18T15:57:17.331Z,10.45
2022-09-18T16:00:19.376Z,10.43
2022-09-18T16:03:09.744Z,10.47
2022-09-18T16:06:08.802Z,10.39
2022-09-18T16:08:58.353Z,10.24
2022-09-18T16:11:48.565Z,10.41
2022-09-18T16:14:42.878Z,10.09
2022-09-18T16:17:55.128Z,10.70
2022-09-18T16:20:45.448Z,10.45
2022-09-18T16:23:36.474Z,10.42
2022-09-18T16:26:29.782Z,9.98
2022-09-18T16:29:22.530Z,10.12
2022-09-18T16:32:12.789Z,10.39
2022-09-18T16:35:01.586Z,9.92
2022-09-18T16:37:51.097Z,10.39
2022-09-18T16:40:48.947Z,10.22
2022-09-18T16:43:37.405Z,10.33
2022-09-18T16:46:33.968Z,10.21
2022-09-18T16:49:26.456Z,10.20
2022-09-18T16:52:15.188Z,10.45
2022-09-18T16:55:10.878Z,10.04
2022-09-18T16:57:59.988Z,10.32
2022-09-18T17:00:54.450Z,10.05
2022-09-18T17:03:44.493Z,9.95
2022-09-18T17:06:39.487Z,10.24
2022-09-18T17:09:28.185Z,10.46
2022-09-18T17:12:23.893Z,10.47
2022-09-18T17:15:12.346Z,10.30
2022-09-18T17:18:06.972Z,10.56
2022-09-18T17:20:57.133Z,10.20
2022-09-18T17:23:51.962Z,10.67
2022-09-18T17:26:42.268Z,10.17
2022-09-18T17:29:36.720Z,10.23
2022-09-18T17:32:25.073Z,10.06
2022-09-18T17:35:19.572Z,9.93
2022-09-18T17:38:09.304Z,9.85
2022-09-18T17:41:06.517Z,10.17
2022-09-18T17:43:55.321Z,10.03
2022-09-18T17:46:52.707Z,10.36
2022-09-18T17:49:41.274Z,10.11
2022-09-18T17:52:38.752Z,10.38
2022-09-18T17:55:28.629Z,10.47
2022-09-18T17:58:17.181Z,10.06
2022-09-18T18:01:16.950Z,10.27
2022-09-18T18:04:05.828Z,9.94
2022-09-18T18:06:54.301Z,10.15
2022-09-18T18:09:42.611Z,10.74
2022-09-18T18:12:41.874Z,10.38
2022-09-18T18:15:30.402Z,10.59
2022-09-18T18:18:28.759Z,10.11
2022-09-18T18:21:17.577Z,10.17
2022-09-18T18:24:09.171Z,10.33
2022-09-18T18:26:58.060Z,9.82
2022-09-18T18:29:57.225Z,10.12
2022-09-18T18:32:45.711Z,10.00
2022-09-18T18:35:36.889Z,10.33
2022-09-18T18:38:25.519Z,10.68
2022-09-18T18:41:25.047Z,10.56
2022-09-18T18:44:13.471Z,10.38
2022-09-18T18:47:03.238Z,10.67
2022-09-18T18:49:54.269Z,10.37
2022-09-18T18:52:43.322Z,10.58
2022-09-18T18:55:31.686Z,10.78
2022-09-18T18:58:20.485Z,10.60
2022-09-18T19:01:19.462Z,10.62
2022-09-18T19:04:11.373Z,10.50
2022-09-18T19:06:59.727Z,10.15
2022-09-18T19:09:54.213Z,9.61
2022-09-18T19:12:42.594Z,9.38
2022-09-18T19:15:38.529Z,10.27
2022-09-18T19:18:26.955Z,10.25
2022-09-18T19:21:23.311Z,9.91
2022-09-18T19:24:13.377Z,10.06
2022-09-18T19:27:08.149Z,9.93
2022-09-18T19:29:56.537Z,10.05
2022-09-18T19:32:54.611Z,10.23
2022-09-18T19:35:42.985Z,10.25
2022-09-18T19:38:38.709Z,10.34
2022-09-18T19:41:33.621Z,10.16
2022-09-18T19:44:28.062Z,10.11
2022-09-18T19:47:21.666Z,10.14
2022-09-18T19:50:18.866Z,10.36
2022-09-18T19:53:07.542Z,10.30
2022-09-18T19:56:18.447Z,10.34
2022-09-18T19:59:16.652Z,10.06
2022-09-18T20:02:13.317Z,10.13
2022-09-18T20:05:02.142Z,10.18
2022-09-18T20:07:56.710Z,10.21
2022-09-18T20:10:45.103Z,10.54
2022-09-18T20:13:41.189Z,10.54
2022-09-18T20:16:29.702Z,10.33
2022-09-18T20:19:24.842Z,10.41
2022-09-18T20:22:13.206Z,10.35
2022-09-18T20:25:05.280Z,10.25
2022-09-18T20:27:53.643Z,10.22
2022-09-18T20:30:43.520Z,10.47
2022-09-18T20:33:32.005Z,10.56
2022-09-18T20:36:20.336Z,10.52
2022-09-18T20:39:09.201Z,10.35
2022-09-18T20:42:00.733Z,10.52
2022-09-18T20:44:49.172Z,10.53
2022-09-18T20:47:39.119Z,10.35
2022-09-18T20:50:28.050Z,10.54
2022-09-18T20:53:19.249Z,10.27
2022-09-18T20:56:08.201Z,10.21
2022-09-18T20:59:05.554Z,10.23
2022-09-18T21:01:53.890Z,10.36
2022-09-18T21:04:47.103Z,10.33
2022-09-18T21:07:36.062Z,10.35
2022-09-18T21:10:33.833Z,10.28
2022-09-18T21:13:22.591Z,10.05
2022-09-18T21:16:10.983Z,10.12
2022-09-18T21:19:06.835Z,9.68
2022-09-18T21:21:57.177Z,9.52
2022-09-18T21:24:46.403Z,9.50
2022-09-18T21:27:34.778Z,9.71
2022-09-18T21:30:26.312Z,9.90
2022-09-18T21:33:15.960Z,9.64
2022-09-18T21:36:10.682Z,9.80
2022-09-18T21:39:00.870Z,9.83
2022-09-18T21:41:55.949Z,9.58
2022-09-18T21:44:45.782Z,9.75
2022-09-18T21:47:34.183Z,9.94
2022-09-18T21:50:22.928Z,9.93
2022-09-18T21:53:11.488Z,9.92
2022-09-18T21:56:02.533Z,9.74
2022-09-18T21:58:51.060Z,9.94
2022-09-18T22:01:46.938Z,9.68
2022-09-18T22:04:35.562Z,9.82
2022-09-18T22:07:29.953Z,9.73
2022-09-18T22:10:18.452Z,9.89
2022-09-18T22:13:14.247Z,9.85
2022-09-18T22:16:03.282Z,10.09
2022-09-18T22:18:58.094Z,10.17
2022-09-18T22:21:48.107Z,10.44
2022-09-18T22:24:42.219Z,9.87
2022-09-18T22:27:30.605Z,9.98
2022-09-18T22:30:27.033Z,9.98
2022-09-18T22:33:15.324Z,9.72
2022-09-18T22:36:09.781Z,9.61
2022-09-18T22:38:58.035Z,9.58
2022-09-18T22:41:52.618Z,9.67
2022-09-18T22:44:40.895Z,9.61
2022-09-18T22:47:31.211Z,9.82
2022-09-18T22:50:19.493Z,9.96
2022-09-18T22:53:14.063Z,9.88
2022-09-18T22:56:04.396Z,10.24
2022-09-18T22:58:54.341Z,9.75
2022-09-18T23:01:48.974Z,9.49
2022-09-18T23:04:38.700Z,9.49
2022-09-18T23:07:36.000Z,9.41
2022-09-18T23:10:24.426Z,9.58
2022-09-18T23:13:24.792Z,9.68
2022-09-18T23:16:14.113Z,9.83
2022-09-18T23:19:16.522Z,9.75
2022-09-18T23:22:10.050Z,9.81
2022-09-18T23:24:58.480Z,9.78
2022-09-18T23:27:53.752Z,10.20
2022-09-18T23:30:42.064Z,9.83
2022-09-18T23:33:36.765Z,10.08
2022-09-18T23:36:27.043Z,10.12
2022-09-18T23:39:24.549Z,9.90
2022-09-18T23:42:12.868Z,10.03
2022-09-18T23:45:08.312Z,10.37
2022-09-18T23:47:56.639Z,10.30
2022-09-18T23:50:44.881Z,10.55
2022-09-18T23:53:38.029Z,10.29
2022-09-18T23:56:29.229Z,10.27
2022-09-18T23:59:22.679Z,9.95
